Time;durP1;ratioP1;P1;durP2;ratioP2;P2;SDS_P1;SDS_P2;PMS_P1;PMS_P2;Temp;Humidity;BMP_temperature;BMP_pressure;BME280_temperature;BME280_humidity;BME280_pressure;Samples;Min_cycle;Max_cycle;Signal;HPM_P1;HPM_P2
2022/03/13 00:00:52;;;;;;;6.38;4.63;;;9.10;99.90;;;;;;5027557;28;20030;-72
2022/03/13 00:03:21;;;;;;;7.20;4.63;;;9.10;99.90;;;;;;5011287;28;20037;-72
2022/03/13 00:05:49;;;;;;;8.77;4.97;;;9.10;99.90;;;;;;5022985;28;20079;-72
2022/03/13 00:08:23;;;;;;;7.20;4.40;;;9.10;99.90;;;;;;5027130;28;20474;-73
2022/03/13 00:10:56;;;;;;;6.32;4.05;;;9.10;99.90;;;;;;5028460;28;20044;-72
2022/03/13 00:13:30;;;;;;;6.43;4.63;;;9.10;99.90;;;;;;5028944;28;20041;-72
2022/03/13 00:15:59;;;;;;;6.13;3.75;;;9.00;99.90;;;;;;5029305;28;20048;-72
2022/03/13 00:18:24;;;;;;;7.20;4.13;;;9.00;99.90;;;;;;5025304;28;20038;-73
2022/03/13 00:20:51;;;;;;;6.50;4.05;;;9.00;99.90;;;;;;5003473;28;20090;-73
2022/03/13 00:23:17;;;;;;;6.50;3.95;;;8.90;99.90;;;;;;5025680;28;20036;-73
2022/03/13 00:25:42;;;;;;;6.88;4.32;;;8.90;99.90;;;;;;5029146;28;20037;-72
2022/03/13 00:28:08;;;;;;;7.00;4.55;;;8.90;99.90;;;;;;5023175;28;20075;-73
2022/03/13 00:30:35;;;;;;;8.15;5.18;;;8.90;99.90;;;;;;5026695;28;20478;-73
2022/03/13 00:33:01;;;;;;;7.82;4.95;;;8.80;99.90;;;;;;5028208;28;20112;-72
2022/03/13 00:35:28;;;;;;;6.90;4.78;;;8.70;99.90;;;;;;5024121;28;20481;-72
2022/03/13 00:37:54;;;;;;;6.07;3.78;;;8.80;99.90;;;;;;5025449;28;20105;-72
2022/03/13 00:40:20;;;;;;;8.07;5.03;;;8.80;99.90;;;;;;5026501;28;20498;-72
2022/03/13 00:42:46;;;;;;;7.45;4.75;;;8.70;99.90;;;;;;5028594;28;20502;-73
2022/03/13 00:45:13;;;;;;;9.13;5.60;;;8.70;99.90;;;;;;5027609;28;20101;-72
2022/03/13 00:47:39;;;;;;;6.57;5.00;;;8.70;99.90;;;;;;5032648;28;20398;-72
2022/03/13 00:50:05;;;;;;;8.45;5.07;;;8.70;99.90;;;;;;5028550;28;20063;-72
2022/03/13 00:52:31;;;;;;;9.35;6.00;;;8.70;99.90;;;;;;5014725;28;20405;-73
2022/03/13 00:54:56;;;;;;;8.52;5.20;;;8.70;99.90;;;;;;5025120;28;20033;-72
2022/03/13 00:57:22;;;;;;;6.70;4.78;;;8.60;99.90;;;;;;5030094;28;20581;-72
2022/03/13 00:59:48;;;;;;;7.47;5.25;;;8.60;99.90;;;;;;5029110;28;20444;-72
2022/03/13 01:02:14;;;;;;;7.18;4.18;;;8.60;99.90;;;;;;5027338;28;20073;-72
2022/03/13 01:04:49;;;;;;;6.50;4.50;;;8.60;99.90;;;;;;5006983;28;20026;-72
2022/03/13 01:07:15;;;;;;;9.02;4.95;;;8.50;99.90;;;;;;5028935;28;20041;-73
2022/03/13 01:09:41;;;;;;;7.68;5.00;;;8.50;99.90;;;;;;5027104;28;20335;-72
2022/03/13 01:12:08;;;;;;;8.00;4.88;;;8.50;99.90;;;;;;5028236;28;20390;-73
2022/03/13 01:14:34;;;;;;;9.50;5.57;;;8.50;99.90;;;;;;5029237;28;20034;-72
2022/03/13 01:17:04;;;;;;;8.57;5.35;;;8.50;99.90;;;;;;5028749;28;20028;-72
2022/03/13 01:19:30;;;;;;;7.90;4.97;;;8.50;99.90;;;;;;5001517;28;20620;-72
2022/03/13 01:21:56;;;;;;;8.75;5.45;;;8.50;99.90;;;;;;5010327;28;20120;-73
2022/03/13 01:24:43;;;;;;;9.30;5.45;;;8.50;99.90;;;;;;5025926;28;20018;-72
2022/03/13 01:27:09;;;;;;;7.70;5.07;;;8.50;99.90;;;;;;5010277;28;20037;-72
2022/03/13 01:29:35;;;;;;;8.30;5.78;;;8.40;99.90;;;;;;5031660;28;20104;-72
2022/03/13 01:32:01;;;;;;;7.63;5.88;;;8.40;99.90;;;;;;5025187;28;20584;-73
2022/03/13 01:34:36;;;;;;;7.37;4.93;;;8.40;99.90;;;;;;5030194;28;20059;-72
2022/03/13 01:37:10;;;;;;;7.80;5.05;;;8.40;99.90;;;;;;5025021;28;20288;-72
2022/03/13 01:39:37;;;;;;;9.55;5.63;;;8.40;99.90;;;;;;5043626;28;20124;-72
2022/03/13 01:42:04;;;;;;;8.98;5.72;;;8.30;99.90;;;;;;5031379;28;20029;-72
2022/03/13 01:44:30;;;;;;;9.73;5.80;;;8.30;99.90;;;;;;5035712;28;20033;-72
2022/03/13 01:46:55;;;;;;;8.82;5.53;;;8.30;99.90;;;;;;5013506;28;20060;-72
2022/03/13 01:49:23;;;;;;;7.97;5.15;;;8.20;99.90;;;;;;5036877;28;20022;-73
2022/03/13 01:51:49;;;;;;;9.10;4.40;;;8.20;99.90;;;;;;5024244;28;20041;-72
2022/03/13 01:54:15;;;;;;;7.72;5.15;;;8.20;99.90;;;;;;5030684;28;20597;-73
2022/03/13 01:56:41;;;;;;;9.32;5.78;;;8.20;99.90;;;;;;5025938;28;20125;-72
2022/03/13 01:59:09;;;;;;;7.93;5.18;;;8.20;99.90;;;;;;5033709;28;20021;-72
2022/03/13 02:01:37;;;;;;;6.88;4.53;;;8.20;99.90;;;;;;5031099;28;20022;-73
2022/03/13 02:04:02;;;;;;;7.20;4.82;;;8.20;99.90;;;;;;5027093;28;20033;-72
2022/03/13 02:06:28;;;;;;;8.50;5.30;;;8.10;99.90;;;;;;5032428;28;20040;-72
2022/03/13 02:08:55;;;;;;;7.03;4.20;;;8.20;99.90;;;;;;5031694;28;20025;-72
2022/03/13 02:11:23;;;;;;;7.40;4.80;;;8.10;99.90;;;;;;5032980;28;20075;-72
2022/03/13 02:13:52;;;;;;;7.00;4.32;;;8.10;99.90;;;;;;5030277;28;20029;-73
2022/03/13 02:16:19;;;;;;;7.00;4.38;;;8.10;99.90;;;;;;5029297;28;20048;-72
2022/03/13 02:18:49;;;;;;;7.50;5.07;;;8.00;99.90;;;;;;5029018;28;20034;-72
2022/03/13 02:21:22;;;;;;;8.43;5.78;;;8.00;99.90;;;;;;5027135;28;20425;-72
2022/03/13 02:23:48;;;;;;;8.30;4.90;;;8.00;99.90;;;;;;5028626;28;20036;-72
2022/03/13 02:26:13;;;;;;;8.60;5.50;;;8.00;99.90;;;;;;5028418;28;20034;-72
2022/03/13 02:28:51;;;;;;;7.28;5.07;;;8.00;99.90;;;;;;5034276;28;20025;-72
2022/03/13 02:31:29;;;;;;;7.88;4.90;;;8.00;99.90;;;;;;5033956;28;20408;-72
2022/03/13 02:33:56;;;;;;;8.60;4.70;;;8.00;99.90;;;;;;5024206;28;20398;-72
2022/03/13 02:36:32;;;;;;;7.47;5.07;;;8.00;99.90;;;;;;5028821;28;20029;-72
2022/03/13 02:38:59;;;;;;;7.75;5.05;;;8.00;99.90;;;;;;5029156;28;20391;-72
2022/03/13 02:41:27;;;;;;;9.65;6.20;;;8.00;99.90;;;;;;5033781;28;20095;-72
2022/03/13 02:43:54;;;;;;;8.82;5.45;;;8.10;99.90;;;;;;5028808;28;20064;-72
2022/03/13 02:46:23;;;;;;;6.35;4.97;;;8.10;99.90;;;;;;5030353;28;20044;-72
2022/03/13 02:48:50;;;;;;;9.15;6.10;;;8.10;99.90;;;;;;5045918;28;20029;-72
2022/03/13 02:51:16;;;;;;;10.90;6.85;;;8.10;99.90;;;;;;5022389;28;20386;-72
2022/03/13 02:53:42;;;;;;;9.23;5.93;;;8.20;99.90;;;;;;5027561;28;20303;-72
2022/03/13 02:56:08;;;;;;;9.35;6.38;;;8.20;99.90;;;;;;5012937;28;20296;-73
2022/03/13 02:58:35;;;;;;;8.63;5.97;;;8.20;99.90;;;;;;5011692;28;20172;-72
2022/03/13 03:01:00;;;;;;;9.52;6.68;;;8.10;99.90;;;;;;5028793;28;20030;-72
2022/03/13 03:03:26;;;;;;;10.52;5.72;;;8.20;99.90;;;;;;5029157;28;20032;-72
2022/03/13 03:05:53;;;;;;;9.50;6.05;;;8.20;99.90;;;;;;5030576;28;20120;-72
2022/03/13 03:08:19;;;;;;;8.05;5.60;;;8.20;99.90;;;;;;5033143;28;20104;-72
2022/03/13 03:10:45;;;;;;;8.68;5.07;;;8.20;99.90;;;;;;5029262;28;20401;-72
2022/03/13 03:13:13;;;;;;;8.15;5.43;;;8.20;99.90;;;;;;5030040;28;20033;-72
2022/03/13 03:15:39;;;;;;;7.03;5.00;;;8.20;99.90;;;;;;5029942;28;20388;-72
2022/03/13 03:18:06;;;;;;;8.32;5.10;;;8.20;99.90;;;;;;5028863;28;20060;-73
2022/03/13 03:20:34;;;;;;;8.38;5.15;;;8.10;99.90;;;;;;5028748;28;20037;-72
2022/03/13 03:23:00;;;;;;;6.00;3.72;;;8.10;99.90;;;;;;5011908;28;20470;-72
2022/03/13 03:25:27;;;;;;;8.95;6.30;;;8.00;99.90;;;;;;5011709;28;20100;-72
2022/03/13 03:27:55;;;;;;;8.85;5.68;;;8.00;99.90;;;;;;5028936;28;20108;-72
2022/03/13 03:30:22;;;;;;;9.10;5.88;;;8.00;99.90;;;;;;5024825;28;20029;-72
2022/03/13 03:32:49;;;;;;;8.02;5.20;;;8.00;99.90;;;;;;5029178;28;20453;-72
2022/03/13 03:35:17;;;;;;;7.72;5.30;;;7.90;99.90;;;;;;5028579;28;20112;-72
2022/03/13 03:37:43;;;;;;;7.15;5.13;;;7.90;99.90;;;;;;5028462;28;20026;-72
2022/03/13 03:40:10;;;;;;;6.72;4.78;;;7.80;99.90;;;;;;5028635;28;20026;-72
2022/03/13 03:42:36;;;;;;;7.03;4.85;;;7.80;99.90;;;;;;5026246;28;20496;-72
2022/03/13 03:45:03;;;;;;;8.85;5.20;;;7.70;99.90;;;;;;5026524;28;20026;-72
2022/03/13 03:47:29;;;;;;;7.80;5.03;;;7.70;99.90;;;;;;5024170;28;20100;-72
2022/03/13 03:49:54;;;;;;;8.77;5.00;;;7.70;99.90;;;;;;5028248;28;20021;-72
2022/03/13 03:52:20;;;;;;;7.15;4.43;;;7.60;99.90;;;;;;5028902;28;20043;-72
2022/03/13 03:54:46;;;;;;;5.95;4.05;;;7.60;99.90;;;;;;5025355;28;20086;-72
2022/03/13 03:57:11;;;;;;;7.40;4.53;;;7.50;99.90;;;;;;5009807;28;20049;-72
2022/03/13 03:59:37;;;;;;;6.18;4.35;;;7.50;99.90;;;;;;5024622;28;20096;-72
2022/03/13 04:02:03;;;;;;;7.88;4.95;;;7.50;99.90;;;;;;5029910;28;20025;-72
2022/03/13 04:04:28;;;;;;;7.63;4.60;;;7.50;99.90;;;;;;5031217;28;20037;-72
2022/03/13 04:06:54;;;;;;;6.97;4.00;;;7.50;99.90;;;;;;5011968;28;20040;-72
2022/03/13 04:09:20;;;;;;;7.75;4.32;;;7.50;99.90;;;;;;5043080;28;20037;-72
2022/03/13 04:11:46;;;;;;;8.40;5.43;;;7.50;99.90;;;;;;5010467;28;20037;-72
2022/03/13 04:14:13;;;;;;;7.60;4.63;;;7.50;99.90;;;;;;5030796;28;20504;-72
2022/03/13 04:16:39;;;;;;;8.52;5.00;;;7.50;99.90;;;;;;5031304;28;20029;-72
2022/03/13 04:19:04;;;;;;;8.40;5.22;;;7.60;99.90;;;;;;5027918;28;20029;-72
2022/03/13 04:21:30;;;;;;;7.60;4.95;;;7.60;99.90;;;;;;5027232;28;20859;-72
2022/03/13 04:23:55;;;;;;;11.80;5.47;;;7.60;99.90;;;;;;5022565;28;20132;-72
2022/03/13 04:26:25;;;;;;;6.72;4.03;;;7.60;99.90;;;;;;5009198;28;20029;-72
2022/03/13 04:28:50;;;;;;;7.90;4.90;;;7.60;99.90;;;;;;5004954;28;20054;-72
2022/03/13 04:31:18;;;;;;;6.72;4.35;;;7.60;99.90;;;;;;5029751;28;20107;-72
2022/03/13 04:33:47;;;;;;;7.70;4.13;;;7.60;99.90;;;;;;5030055;28;20492;-72
2022/03/13 04:36:14;;;;;;;6.78;4.43;;;7.50;99.90;;;;;;5027287;28;20045;-72
2022/03/13 04:38:42;;;;;;;8.10;4.68;;;7.60;99.90;;;;;;5031207;28;20037;-72
2022/03/13 04:41:09;;;;;;;6.47;4.65;;;7.60;99.90;;;;;;5022764;28;20036;-72
2022/03/13 04:43:35;;;;;;;6.35;4.25;;;7.60;99.90;;;;;;5028434;28;20032;-72
2022/03/13 04:46:00;;;;;;;9.57;5.13;;;7.60;99.90;;;;;;5024901;28;20049;-72
2022/03/13 04:48:27;;;;;;;7.38;4.82;;;7.60;99.90;;;;;;5026168;28;20030;-72
2022/03/13 04:50:52;;;;;;;7.82;4.68;;;7.60;99.90;;;;;;5032158;28;20033;-72
2022/03/13 04:53:18;;;;;;;6.15;4.00;;;7.50;99.90;;;;;;5022813;28;20038;-72
2022/03/13 04:55:44;;;;;;;8.80;5.65;;;7.50;99.90;;;;;;5023185;28;20395;-72
2022/03/13 04:58:11;;;;;;;7.97;5.22;;;7.50;99.90;;;;;;5028780;28;20084;-73
2022/03/13 05:00:38;;;;;;;6.97;4.15;;;7.50;99.90;;;;;;5032160;28;20033;-72
2022/03/13 05:03:10;;;;;;;7.30;4.50;;;7.50;99.90;;;;;;5035612;28;20470;-72
2022/03/13 05:05:36;;;;;;;6.55;2.92;;;7.50;99.90;;;;;;5028087;28;20438;-72
2022/03/13 05:08:04;;;;;;;8.02;4.72;;;7.50;99.90;;;;;;5036023;28;20492;-72
2022/03/13 05:10:35;;;;;;;6.70;3.95;;;7.50;99.90;;;;;;5012629;28;20373;-73
2022/03/13 05:13:02;;;;;;;5.72;3.85;;;7.50;99.90;;;;;;5032839;28;20037;-72
2022/03/13 05:15:28;;;;;;;5.38;3.05;;;7.50;99.90;;;;;;5030538;28;20036;-72
2022/03/13 05:17:54;;;;;;;6.15;3.90;;;7.50;99.90;;;;;;5011372;28;20025;-72
2022/03/13 05:20:19;;;;;;;6.38;4.03;;;7.50;99.90;;;;;;5031894;28;20025;-72
2022/03/13 05:22:45;;;;;;;5.38;3.58;;;7.50;99.90;;;;;;5029749;28;20494;-72
2022/03/13 05:25:14;;;;;;;5.28;3.33;;;7.50;99.90;;;;;;5032395;28;20025;-72
2022/03/13 05:27:40;;;;;;;6.15;2.83;;;7.50;99.90;;;;;;5032489;28;20030;-72
2022/03/13 05:30:08;;;;;;;4.93;2.95;;;7.50;99.90;;;;;;5031829;28;20021;-72
2022/03/13 05:32:35;;;;;;;6.35;3.65;;;7.50;99.90;;;;;;5041139;28;20436;-72
2022/03/13 05:35:04;;;;;;;5.15;3.00;;;7.50;99.90;;;;;;5033445;28;20025;-72
2022/03/13 05:37:30;;;;;;;5.30;3.65;;;7.50;99.90;;;;;;5032693;28;20099;-72
2022/03/13 05:39:56;;;;;;;6.95;3.60;;;7.50;99.90;;;;;;5031099;28;20029;-72
2022/03/13 05:42:24;;;;;;;5.43;3.20;;;7.50;99.90;;;;;;5028957;28;20026;-72
2022/03/13 05:44:53;;;;;;;6.05;2.72;;;7.50;99.90;;;;;;5027383;28;20397;-72
2022/03/13 05:47:19;;;;;;;5.78;2.95;;;7.50;99.90;;;;;;5026545;28;20061;-72
2022/03/13 05:49:46;;;;;;;5.40;3.15;;;7.40;99.90;;;;;;5030140;28;20034;-72
2022/03/13 05:52:13;;;;;;;4.68;3.20;;;7.40;99.90;;;;;;5032889;28;20139;-73
2022/03/13 05:54:39;;;;;;;6.00;3.33;;;7.40;99.90;;;;;;5028670;28;20033;-72
2022/03/13 05:57:09;;;;;;;6.10;3.15;;;7.50;99.90;;;;;;5028288;28;20037;-73
2022/03/13 05:59:35;;;;;;;5.60;2.97;;;7.60;99.90;;;;;;5029706;28;20034;-72
2022/03/13 06:02:04;;;;;;;4.35;2.60;;;7.60;99.90;;;;;;5030483;28;20669;-72
2022/03/13 06:04:37;;;;;;;4.55;2.83;;;7.60;99.90;;;;;;5030986;28;20029;-72
2022/03/13 06:07:04;;;;;;;5.10;2.67;;;7.60;99.90;;;;;;5030156;28;20035;-72
2022/03/13 06:09:29;;;;;;;4.75;2.55;;;7.60;99.90;;;;;;5022986;28;20565;-72
2022/03/13 06:11:55;;;;;;;4.75;2.38;;;7.60;99.90;;;;;;5030983;28;20128;-72
2022/03/13 06:14:22;;;;;;;4.75;2.63;;;7.60;99.90;;;;;;5030596;28;20362;-72
2022/03/13 06:16:48;;;;;;;6.32;2.83;;;7.60;99.90;;;;;;5029245;28;20199;-72
2022/03/13 06:19:13;;;;;;;5.28;3.22;;;7.60;99.90;;;;;;5007569;28;20112;-72
2022/03/13 06:21:40;;;;;;;4.68;2.65;;;7.60;99.90;;;;;;5031948;28;20028;-72
2022/03/13 06:24:06;;;;;;;4.32;2.05;;;7.70;99.90;;;;;;5027653;28;20409;-73
2022/03/13 06:26:32;;;;;;;4.80;2.63;;;7.60;99.90;;;;;;5032540;28;20051;-72
2022/03/13 06:28:59;;;;;;;4.43;2.15;;;7.60;99.90;;;;;;5029755;28;20022;-72
2022/03/13 06:31:24;;;;;;;4.10;2.33;;;7.60;99.90;;;;;;5022310;28;20025;-72
2022/03/13 06:33:50;;;;;;;6.13;3.15;;;7.60;99.90;;;;;;5029744;28;20033;-72
2022/03/13 06:36:15;;;;;;;6.40;2.75;;;7.60;99.90;;;;;;5030286;28;20032;-72
2022/03/13 06:38:41;;;;;;;5.43;3.20;;;7.60;99.90;;;;;;5030253;28;20034;-72
2022/03/13 06:41:07;;;;;;;5.85;3.13;;;7.60;99.90;;;;;;5030152;28;20500;-72
2022/03/13 06:43:34;;;;;;;5.03;2.97;;;7.70;99.90;;;;;;5028428;28;20632;-72
2022/03/13 06:46:06;;;;;;;4.68;3.10;;;7.70;99.90;;;;;;5031267;28;20054;-72
2022/03/13 06:48:31;;;;;;;7.57;3.58;;;7.80;99.90;;;;;;5025109;28;20036;-72
2022/03/13 06:50:58;;;;;;;5.57;2.80;;;7.90;99.90;;;;;;5030226;28;20037;-72
2022/03/13 06:53:24;;;;;;;5.72;3.38;;;7.90;99.90;;;;;;5026207;28;20414;-72
2022/03/13 06:55:52;;;;;;;4.45;2.13;;;7.90;99.90;;;;;;5031112;28;20075;-71
2022/03/13 06:58:18;;;;;;;5.57;3.10;;;7.90;99.90;;;;;;5031164;28;20034;-72
2022/03/13 07:00:44;;;;;;;6.70;3.63;;;8.00;99.90;;;;;;5029700;28;20086;-71
2022/03/13 07:03:13;;;;;;;7.53;2.78;;;8.10;99.90;;;;;;5029737;28;20034;-72
2022/03/13 07:05:40;;;;;;;6.88;3.53;;;8.10;99.90;;;;;;5032238;28;20041;-72
2022/03/13 07:08:06;;;;;;;3.85;2.35;;;8.20;99.90;;;;;;5023509;28;20182;-71
2022/03/13 07:10:31;;;;;;;5.22;3.20;;;8.20;99.90;;;;;;5010365;28;20116;-72
2022/03/13 07:12:57;;;;;;;5.20;2.58;;;8.30;99.90;;;;;;5019750;28;20394;-71
2022/03/13 07:15:23;;;;;;;6.20;3.30;;;8.30;99.90;;;;;;5027757;28;20030;-71
2022/03/13 07:17:49;;;;;;;6.18;3.03;;;8.30;99.90;;;;;;5025838;28;20069;-71
2022/03/13 07:20:15;;;;;;;6.20;3.28;;;8.40;99.90;;;;;;5029798;28;20021;-72
2022/03/13 07:22:43;;;;;;;5.55;2.63;;;8.40;99.90;;;;;;5027840;28;20029;-72
2022/03/13 07:25:09;;;;;;;5.22;2.55;;;8.40;99.90;;;;;;5040251;28;20506;-71
2022/03/13 07:27:36;;;;;;;4.57;2.60;;;8.40;99.90;;;;;;5017464;28;20510;-71
2022/03/13 07:30:03;;;;;;;4.60;2.13;;;8.40;99.90;;;;;;5028676;28;20033;-71
2022/03/13 07:32:28;;;;;;;5.10;3.00;;;8.40;99.90;;;;;;5027177;28;20068;-71
2022/03/13 07:34:54;;;;;;;5.90;3.45;;;8.50;99.90;;;;;;5027852;28;20058;-71
2022/03/13 07:37:19;;;;;;;4.28;2.72;;;8.50;99.90;;;;;;5026518;28;20040;-71
2022/03/13 07:39:48;;;;;;;7.28;2.22;;;8.60;99.90;;;;;;5027672;28;20648;-72
2022/03/13 07:42:16;;;;;;;7.00;3.40;;;8.60;99.90;;;;;;5027049;28;20025;-72
2022/03/13 07:44:42;;;;;;;5.15;2.83;;;8.60;99.90;;;;;;5026533;28;20065;-71
2022/03/13 07:47:09;;;;;;;5.90;2.97;;;8.60;99.90;;;;;;5027552;28;20154;-71
2022/03/13 07:49:34;;;;;;;5.22;2.33;;;8.70;99.90;;;;;;5026763;28;20029;-71
2022/03/13 07:52:00;;;;;;;5.32;2.38;;;8.80;99.90;;;;;;5025696;28;20040;-71
2022/03/13 07:54:26;;;;;;;4.38;2.50;;;8.90;99.90;;;;;;5031698;28;20098;-72
2022/03/13 07:56:51;;;;;;;3.97;2.17;;;9.00;99.90;;;;;;5027412;28;20393;-71
2022/03/13 07:59:17;;;;;;;5.88;2.88;;;9.10;99.90;;;;;;5023528;28;20034;-71
2022/03/13 08:01:43;;;;;;;4.07;2.50;;;9.10;99.90;;;;;;5028254;28;20120;-71
2022/03/13 08:04:09;;;;;;;4.32;2.50;;;9.10;99.90;;;;;;5026975;28;20049;-71
2022/03/13 08:06:36;;;;;;;6.28;2.65;;;9.20;99.90;;;;;;5028374;28;20466;-71
2022/03/13 08:09:04;;;;;;;5.10;3.17;;;9.10;99.90;;;;;;5043920;28;20031;-71
2022/03/13 08:11:29;;;;;;;4.78;2.10;;;9.10;99.90;;;;;;5021900;28;20037;-71
2022/03/13 08:13:55;;;;;;;4.30;2.22;;;9.20;99.90;;;;;;5040312;28;20029;-72
2022/03/13 08:16:21;;;;;;;3.40;2.20;;;9.30;99.90;;;;;;5022480;28;20108;-72
2022/03/13 08:18:47;;;;;;;5.40;3.55;;;9.40;99.90;;;;;;5028549;28;20029;-71
2022/03/13 08:21:13;;;;;;;4.30;2.45;;;9.50;99.90;;;;;;5027930;28;20338;-71
2022/03/13 08:23:39;;;;;;;5.18;2.13;;;9.60;99.90;;;;;;5039912;28;20034;-72
2022/03/13 08:26:06;;;;;;;4.32;2.70;;;9.60;99.90;;;;;;5011329;28;20068;-72
2022/03/13 08:28:32;;;;;;;4.97;2.60;;;9.70;99.90;;;;;;4994264;28;20030;-71
2022/03/13 08:30:58;;;;;;;6.70;3.28;;;9.70;99.90;;;;;;5000667;28;20031;-71
2022/03/13 08:33:24;;;;;;;6.05;3.00;;;9.70;99.90;;;;;;5029824;28;20041;-72
2022/03/13 08:35:50;;;;;;;4.15;2.22;;;9.70;99.90;;;;;;5030876;28;20125;-71
2022/03/13 08:38:16;;;;;;;5.35;3.10;;;9.70;99.90;;;;;;5014916;28;20026;-71
2022/03/13 08:40:42;;;;;;;4.25;2.53;;;9.80;99.90;;;;;;5032579;28;20512;-71
2022/03/13 08:43:07;;;;;;;6.13;2.63;;;9.90;99.90;;;;;;5033738;28;20073;-71
2022/03/13 08:45:33;;;;;;;3.47;1.65;;;9.80;99.90;;;;;;5029788;28;20052;-72
2022/03/13 08:47:58;;;;;;;5.60;2.60;;;9.80;99.90;;;;;;5032350;28;20040;-72
2022/03/13 08:50:24;;;;;;;5.57;2.80;;;9.70;99.90;;;;;;5031456;28;20061;-72
2022/03/13 08:52:50;;;;;;;4.63;2.35;;;9.70;99.90;;;;;;5030094;28;20043;-71
2022/03/13 08:55:18;;;;;;;6.07;2.78;;;9.70;99.90;;;;;;5024456;28;20072;-72
2022/03/13 08:57:45;;;;;;;4.82;3.22;;;9.70;99.90;;;;;;5033676;28;20044;-71
2022/03/13 09:00:14;;;;;;;4.68;2.55;;;9.70;99.90;;;;;;5028180;28;20032;-71
2022/03/13 09:02:40;;;;;;;3.67;2.67;;;9.70;99.90;;;;;;5028825;28;22130;-71
2022/03/13 09:05:06;;;;;;;7.53;3.95;;;9.70;99.90;;;;;;5027232;28;20034;-71
2022/03/13 09:07:32;;;;;;;5.43;2.40;;;9.60;99.90;;;;;;5030511;28;20179;-71
2022/03/13 09:09:58;;;;;;;4.97;3.03;;;9.60;99.90;;;;;;5014649;28;20026;-71
2022/03/13 09:12:23;;;;;;;7.75;4.35;;;9.60;99.90;;;;;;5032347;28;20091;-71
2022/03/13 09:14:49;;;;;;;6.10;3.53;;;9.50;99.90;;;;;;5013594;28;20021;-72
2022/03/13 09:17:17;;;;;;;4.72;2.90;;;9.60;99.90;;;;;;5032918;28;20478;-72
2022/03/13 09:19:43;;;;;;;5.20;2.97;;;9.60;99.90;;;;;;5034421;28;20033;-72
2022/03/13 09:22:08;;;;;;;5.93;3.33;;;9.70;99.90;;;;;;5030073;28;20041;-71
2022/03/13 09:24:34;;;;;;;5.10;2.30;;;9.80;99.90;;;;;;5029228;28;20033;-72
2022/03/13 09:27:01;;;;;;;4.57;2.97;;;9.90;99.90;;;;;;5031677;28;20440;-72
2022/03/13 09:29:26;;;;;;;3.45;1.23;;;10.00;99.90;;;;;;5031486;28;20025;-72
2022/03/13 09:31:52;;;;;;;6.00;2.42;;;10.10;99.90;;;;;;5028337;28;20032;-71
2022/03/13 09:34:17;;;;;;;5.30;2.40;;;10.20;99.90;;;;;;5031674;28;20224;-71
2022/03/13 09:36:43;;;;;;;4.68;2.42;;;10.40;99.90;;;;;;5029705;28;20371;-72
2022/03/13 09:39:09;;;;;;;5.22;2.97;;;10.70;99.90;;;;;;5033846;28;20029;-72
2022/03/13 09:41:38;;;;;;;5.90;2.95;;;11.00;99.90;;;;;;5032586;28;20044;-71
2022/03/13 09:44:06;;;;;;;6.00;3.47;;;11.60;99.90;;;;;;5027209;28;20029;-71
2022/03/13 09:46:31;;;;;;;5.47;3.67;;;11.80;99.90;;;;;;5027629;28;20135;-72
2022/03/13 09:48:58;;;;;;;6.38;3.50;;;12.00;99.90;;;;;;5014010;28;20037;-72
2022/03/13 09:51:25;;;;;;;5.78;3.08;;;12.20;99.90;;;;;;5030895;28;20029;-72
2022/03/13 09:53:51;;;;;;;4.95;2.33;;;12.40;99.90;;;;;;5029174;28;20030;-72
2022/03/13 09:56:17;;;;;;;6.05;2.67;;;12.50;99.90;;;;;;5034193;28;20032;-72
2022/03/13 09:58:45;;;;;;;5.75;3.08;;;12.50;99.90;;;;;;5031173;28;20029;-72
2022/03/13 10:01:11;;;;;;;3.30;2.15;;;12.70;99.90;;;;;;5032693;28;20289;-72
2022/03/13 10:03:38;;;;;;;4.05;2.33;;;12.70;99.90;;;;;;5031417;28;20029;-72
2022/03/13 10:06:03;;;;;;;5.45;3.10;;;12.70;99.90;;;;;;5024778;28;20033;-71
2022/03/13 10:08:33;;;;;;;5.18;3.25;;;12.80;99.90;;;;;;5025217;28;20028;-72
2022/03/13 10:11:02;;;;;;;5.18;2.85;;;13.10;99.90;;;;;;5019516;28;20026;-72
2022/03/13 10:13:39;;;;;;;3.92;1.95;;;13.30;99.90;;;;;;5011566;28;20046;-72
2022/03/13 10:16:08;;;;;;;6.35;2.80;;;13.40;99.90;;;;;;5041632;28;20386;-72
2022/03/13 10:18:34;;;;;;;5.05;2.85;;;13.60;99.90;;;;;;5031541;28;20466;-72
2022/03/13 10:21:12;;;;;;;6.03;3.63;;;13.70;99.90;;;;;;5029456;28;20112;-71
2022/03/13 10:23:39;;;;;;;5.20;2.92;;;13.30;99.90;;;;;;5003603;28;20535;-73
2022/03/13 10:26:05;;;;;;;5.88;3.40;;;13.10;99.90;;;;;;5021586;28;20025;-73
2022/03/13 10:28:36;;;;;;;4.95;2.63;;;13.00;99.90;;;;;;5024610;28;20040;-72
2022/03/13 10:31:02;;;;;;;5.43;3.45;;;13.30;99.90;;;;;;5020833;28;20045;-72
2022/03/13 10:33:43;;;;;;;5.10;2.70;;;13.90;99.90;;;;;;5011412;28;20041;-72
2022/03/13 10:36:10;;;;;;;6.57;4.00;;;13.90;99.90;;;;;;5028203;28;20053;-72
2022/03/13 10:38:37;;;;;;;4.85;2.92;;;14.20;99.90;;;;;;5026597;28;20033;-72
2022/03/13 10:41:09;;;;;;;6.68;3.97;;;14.20;99.90;;;;;;5027453;28;20128;-72
2022/03/13 10:43:55;;;;;;;6.55;4.07;;;14.10;99.90;;;;;;5028757;28;20238;-72
2022/03/13 10:46:41;;;;;;;6.20;3.40;;;14.00;99.90;;;;;;5024874;28;20433;-72
2022/03/13 10:49:08;;;;;;;4.88;2.65;;;14.40;99.90;;;;;;5028769;28;20049;-72
2022/03/13 10:51:45;;;;;;;6.38;4.25;;;14.80;99.90;;;;;;5028964;28;20148;-72
2022/03/13 10:54:29;;;;;;;7.00;4.35;;;15.00;99.90;;;;;;5041030;28;20064;-72
2022/03/13 10:57:09;;;;;;;6.95;2.97;;;14.70;99.90;;;;;;5009451;28;20071;-72
2022/03/13 10:59:35;;;;;;;5.65;3.22;;;14.60;99.90;;;;;;5027651;28;20457;-73
2022/03/13 11:02:15;;;;;;;5.45;3.45;;;14.80;99.90;;;;;;5027588;28;20072;-73
2022/03/13 11:04:57;;;;;;;5.45;2.80;;;14.90;99.90;;;;;;5027715;28;20052;-72
2022/03/13 11:07:26;;;;;;;4.85;2.72;;;15.10;99.90;;;;;;5023515;28;20040;-73
2022/03/13 11:09:53;;;;;;;3.47;2.28;;;15.30;99.90;;;;;;5010337;28;20017;-72
2022/03/13 11:12:20;;;;;;;4.88;2.83;;;15.50;99.90;;;;;;5030734;28;20033;-73
2022/03/13 11:14:52;;;;;;;4.72;3.17;;;15.40;99.90;;;;;;5026930;28;20043;-73
2022/03/13 11:17:38;;;;;;;4.07;2.75;;;15.60;99.90;;;;;;5009175;28;20033;-73
2022/03/13 11:20:06;;;;;;;4.18;2.22;;;15.50;99.90;;;;;;5007875;28;20427;-73
2022/03/13 11:22:32;;;;;;;5.60;3.22;;;15.80;99.90;;;;;;5028763;28;20029;-73
2022/03/13 11:25:02;;;;;;;5.32;3.80;;;15.70;99.90;;;;;;5040794;28;20033;-73
2022/03/13 11:27:30;;;;;;;6.68;2.50;;;15.80;99.90;;;;;;5007499;28;20030;-73
2022/03/13 11:29:57;;;;;;;5.45;3.53;;;15.70;99.90;;;;;;5026843;28;20421;-74
2022/03/13 11:32:31;;;;;;;6.40;3.65;;;15.90;99.90;;;;;;5032666;28;20127;-74
2022/03/13 11:35:13;;;;;;;4.07;2.53;;;16.00;99.90;;;;;;5023962;28;20037;-73
2022/03/13 11:37:47;;;;;;;5.10;3.88;;;16.30;99.90;;;;;;5041748;28;20037;-74
2022/03/13 11:40:16;;;;;;;5.97;4.15;;;16.30;99.90;;;;;;5010000;28;20025;-73
2022/03/13 11:42:51;;;;;;;7.45;4.57;;;16.60;99.90;;;;;;5031809;28;20041;-76
2022/03/13 11:45:30;;;;;;;7.97;4.85;;;16.60;99.90;;;;;;5029268;28;20025;-74
2022/03/13 11:48:19;;;;;;;5.20;3.20;;;16.70;99.90;;;;;;5038546;28;20048;-73
2022/03/13 11:50:52;;;;;;;4.43;2.88;;;17.00;99.90;;;;;;5021535;28;20043;-74
2022/03/13 11:53:19;;;;;;;6.13;3.20;;;16.90;99.90;;;;;;5026607;28;20041;-75
2022/03/13 11:56:00;;;;;;;5.72;3.90;;;16.80;99.90;;;;;;5027820;28;20140;-74
2022/03/13 11:58:38;;;;;;;4.63;3.25;;;17.10;99.90;;;;;;5023472;28;20033;-74
2022/03/13 12:01:30;;;;;;;4.97;2.95;;;17.00;99.90;;;;;;5028067;28;20117;-74
2022/03/13 12:04:07;;;;;;;8.80;6.07;;;16.90;99.90;;;;;;5021923;28;20101;-73
2022/03/13 12:06:41;;;;;;;4.55;3.60;;;16.70;99.90;;;;;;5022298;28;20044;-74
2022/03/13 12:09:08;;;;;;;4.15;2.40;;;16.70;99.90;;;;;;5008878;28;20040;-74
2022/03/13 12:11:50;;;;;;;4.13;2.00;;;17.10;99.90;;;;;;5031302;28;20029;-73
2022/03/13 12:14:19;;;;;;;3.95;2.17;;;17.50;99.90;;;;;;5042483;28;20394;-74
2022/03/13 12:16:46;;;;;;;4.15;3.00;;;17.20;99.90;;;;;;5026679;28;20029;-73
2022/03/13 12:19:12;;;;;;;4.50;2.60;;;17.30;99.90;;;;;;5026275;28;20032;-74
2022/03/13 12:21:44;;;;;;;5.47;2.95;;;17.50;99.90;;;;;;5028389;28;20180;-74
2022/03/13 12:24:18;;;;;;;4.72;3.33;;;17.60;99.90;;;;;;5028202;28;20041;-73
2022/03/13 12:26:45;;;;;;;6.95;3.17;;;17.70;99.90;;;;;;5027557;28;20029;-74
2022/03/13 12:29:17;;;;;;;4.55;2.75;;;17.70;99.90;;;;;;5026603;28;20025;-76
2022/03/13 12:31:52;;;;;;;4.13;2.58;;;17.80;99.90;;;;;;5023195;28;20490;-74
2022/03/13 12:34:29;;;;;;;6.30;3.28;;;17.60;99.90;;;;;;5026101;28;20482;-74
2022/03/13 12:36:58;;;;;;;4.63;2.60;;;17.80;99.90;;;;;;5027053;28;20124;-72
2022/03/13 12:39:24;;;;;;;3.53;2.03;;;17.70;99.90;;;;;;5009607;28;20116;-74
2022/03/13 12:42:01;;;;;;;5.15;3.33;;;17.60;99.90;;;;;;5030022;28;20041;-72
2022/03/13 12:44:30;;;;;;;3.10;2.13;;;17.70;99.90;;;;;;5028057;28;20139;-74
2022/03/13 12:46:56;;;;;;;4.03;3.07;;;17.80;99.90;;;;;;5010585;28;20128;-74
2022/03/13 12:49:35;;;;;;;4.22;2.35;;;17.60;99.90;;;;;;5026121;28;20164;-74
2022/03/13 12:52:01;;;;;;;2.65;1.33;;;17.50;99.90;;;;;;5039385;28;20073;-74
2022/03/13 12:54:30;;;;;;;4.00;1.98;;;18.00;99.90;;;;;;5026515;28;20034;-75
2022/03/13 12:56:58;;;;;;;5.53;2.78;;;17.90;99.90;;;;;;5023072;28;20037;-74
2022/03/13 12:59:29;;;;;;;3.38;2.08;;;18.00;99.90;;;;;;5026881;28;20336;-74